Time;durP1;ratioP1;P1;durP2;ratioP2;P2;SDS_P1;SDS_P2;PMS_P1;PMS_P2;Temp;Humidity;BMP_temperature;BMP_pressure;BME280_temperature;BME280_humidity;BME280_pressure;Samples;Min_cycle;Max_cycle;Signal;HPM_P1;HPM_P2
2022/10/28 00:01:39;;;;;;;8.90;5.70;;;13.30;99.90;;;;;;6269257;28;20470;-66
2022/10/28 00:04:44;;;;;;;8.10;6.60;;;13.30;99.90;;;;;;6274481;28;20532;-63
2022/10/28 00:07:47;;;;;;;5.77;5.20;;;13.20;99.90;;;;;;6262357;28;20478;-67
2022/10/28 00:10:51;;;;;;;7.07;5.53;;;13.20;99.90;;;;;;6273949;28;20475;-66
2022/10/28 00:13:55;;;;;;;8.00;6.00;;;13.10;99.90;;;;;;6257970;28;20468;-63
2022/10/28 00:16:58;;;;;;;6.87;5.60;;;13.10;99.90;;;;;;6258195;28;20493;-66
2022/10/28 00:20:02;;;;;;;8.83;5.63;;;13.10;99.90;;;;;;6258491;28;20479;-66
2022/10/28 00:23:06;;;;;;;6.17;5.57;;;13.10;99.90;;;;;;6257762;28;20582;-63
2022/10/28 00:26:11;;;;;;;5.90;5.10;;;13.10;99.90;;;;;;6257593;28;20493;-62
2022/10/28 00:29:16;;;;;;;6.50;6.00;;;13.00;99.90;;;;;;6261292;28;20474;-66
2022/10/28 00:32:19;;;;;;;5.77;4.97;;;13.10;99.90;;;;;;6263980;28;20981;-66
2022/10/28 00:35:24;;;;;;;6.73;5.60;;;13.00;99.90;;;;;;6273405;28;20805;-66
2022/10/28 00:38:30;;;;;;;8.60;6.53;;;13.00;99.90;;;;;;6275396;28;20457;-63
2022/10/28 00:41:36;;;;;;;11.03;6.67;;;13.00;99.90;;;;;;6279125;28;20487;-64
2022/10/28 00:44:54;;;;;;;7.47;6.70;;;13.00;99.90;;;;;;6278613;28;20535;-65
2022/10/28 00:48:00;;;;;;;7.30;6.70;;;12.90;99.90;;;;;;6283244;28;20489;-65
2022/10/28 00:51:05;;;;;;;8.47;6.07;;;12.90;99.90;;;;;;6295511;28;20543;-65
2022/10/28 00:54:08;;;;;;;7.97;5.80;;;12.80;99.90;;;;;;6278821;28;20535;-65
2022/10/28 00:57:17;;;;;;;5.87;4.83;;;12.80;99.90;;;;;;6277983;28;20470;-65
2022/10/28 01:00:20;;;;;;;12.23;6.37;;;12.70;99.90;;;;;;6278367;28;20800;-65
2022/10/28 01:03:23;;;;;;;7.50;5.30;;;12.80;99.90;;;;;;6277924;28;20474;-66
2022/10/28 01:06:29;;;;;;;5.80;4.20;;;12.80;99.90;;;;;;6277884;28;20485;-66
2022/10/28 01:09:32;;;;;;;5.90;4.80;;;12.80;99.90;;;;;;6278467;28;20478;-65
2022/10/28 01:12:48;;;;;;;5.10;4.60;;;12.80;99.90;;;;;;6277932;28;20466;-65
2022/10/28 01:15:58;;;;;;;7.20;5.10;;;12.70;99.90;;;;;;6277778;28;20486;-66
2022/10/28 01:19:24;;;;;;;5.53;4.97;;;12.70;99.90;;;;;;6277877;28;20814;-66
2022/10/28 01:22:32;;;;;;;5.87;5.27;;;12.60;99.90;;;;;;6277277;28;20532;-65
2022/10/28 01:26:00;;;;;;;8.27;5.20;;;12.60;99.90;;;;;;6278001;28;20478;-66
2022/10/28 01:29:33;;;;;;;6.00;4.60;;;12.60;99.90;;;;;;6250476;28;20481;-63
2022/10/28 01:32:47;;;;;;;13.03;6.27;;;12.60;99.90;;;;;;6277486;28;20450;-65
2022/10/28 01:35:55;;;;;;;5.63;4.10;;;12.50;99.90;;;;;;6277546;28;20534;-65
2022/10/28 01:39:08;;;;;;;5.53;5.00;;;12.50;99.90;;;;;;6277287;28;21158;-65
2022/10/28 01:42:24;;;;;;;8.43;4.80;;;12.40;99.90;;;;;;6277143;28;20467;-65
2022/10/28 01:45:34;;;;;;;8.43;5.20;;;12.40;99.90;;;;;;6277215;28;20474;-65
2022/10/28 01:48:44;;;;;;;7.20;4.80;;;12.40;99.90;;;;;;6277052;28;20942;-66
2022/10/28 01:51:51;;;;;;;11.17;5.83;;;12.40;99.90;;;;;;6277679;28;20474;-65
2022/10/28 01:54:58;;;;;;;4.60;4.13;;;12.30;99.90;;;;;;6276851;28;20807;-65
2022/10/28 01:58:03;;;;;;;5.13;4.63;;;12.30;99.90;;;;;;6276770;28;20482;-65
2022/10/28 02:01:09;;;;;;;6.67;4.63;;;12.20;99.90;;;;;;6276683;28;20492;-66
2022/10/28 02:04:13;;;;;;;6.40;5.43;;;12.20;99.90;;;;;;6276567;28;20477;-65
2022/10/28 02:07:17;;;;;;;8.70;5.30;;;12.20;99.90;;;;;;6276542;28;20555;-65
2022/10/28 02:10:31;;;;;;;7.20;4.23;;;12.20;99.90;;;;;;6276520;28;20531;-63
2022/10/28 02:13:48;;;;;;;5.80;4.63;;;12.20;99.90;;;;;;6276647;28;20471;-63
2022/10/28 02:16:58;;;;;;;7.77;4.40;;;12.20;99.90;;;;;;6276202;28;20482;-63
2022/10/28 02:20:15;;;;;;;9.37;4.73;;;12.20;99.90;;;;;;6276121;28;20997;-67
2022/10/28 02:23:26;;;;;;;8.63;4.90;;;12.20;99.90;;;;;;6275597;28;20821;-62
2022/10/28 02:26:36;;;;;;;6.93;4.57;;;12.20;99.90;;;;;;6276381;28;20458;-66
2022/10/28 02:29:46;;;;;;;5.37;4.43;;;12.20;99.90;;;;;;6276134;28;20886;-65
2022/10/28 02:32:55;;;;;;;4.67;4.27;;;12.10;99.90;;;;;;6276410;28;20466;-66
2022/10/28 02:36:03;;;;;;;8.13;5.07;;;12.20;99.90;;;;;;6276238;28;20481;-65
2022/10/28 02:39:07;;;;;;;5.83;4.70;;;12.10;99.90;;;;;;6275853;28;20474;-66
2022/10/28 02:42:15;;;;;;;6.97;4.90;;;12.10;99.90;;;;;;6275485;28;20577;-66
2022/10/28 02:45:22;;;;;;;7.20;4.60;;;12.10;99.90;;;;;;6275243;28;20475;-65
2022/10/28 02:48:28;;;;;;;8.13;4.63;;;12.10;99.90;;;;;;6276135;28;20492;-66
2022/10/28 02:51:37;;;;;;;4.60;4.20;;;12.00;99.90;;;;;;6275763;28;20513;-66
2022/10/28 02:54:43;;;;;;;7.63;4.83;;;11.90;99.90;;;;;;6275730;28;20487;-66
2022/10/28 02:57:48;;;;;;;8.47;5.33;;;11.90;99.90;;;;;;6271638;28;20531;-66
2022/10/28 03:00:51;;;;;;;5.23;4.70;;;11.90;99.90;;;;;;6274815;28;20482;-65
2022/10/28 03:03:54;;;;;;;5.33;4.83;;;11.80;99.90;;;;;;6275205;28;20838;-65
2022/10/28 03:06:59;;;;;;;7.20;4.50;;;11.80;99.90;;;;;;6275057;28;20481;-65
2022/10/28 03:10:02;;;;;;;5.43;4.90;;;11.70;99.90;;;;;;6275256;28;20471;-65
2022/10/28 03:13:05;;;;;;;4.93;4.40;;;11.70;99.90;;;;;;6275287;28;20477;-63
2022/10/28 03:16:09;;;;;;;4.00;3.67;;;11.60;99.90;;;;;;6275033;28;20481;-66
2022/10/28 03:19:12;;;;;;;5.93;4.27;;;11.60;99.90;;;;;;6274882;28;20478;-66
2022/10/28 03:22:16;;;;;;;5.83;5.30;;;11.70;99.90;;;;;;6274648;28;20470;-67
2022/10/28 03:25:19;;;;;;;6.80;4.60;;;11.60;99.90;;;;;;6274434;28;20489;-65
2022/10/28 03:28:23;;;;;;;6.73;5.13;;;11.60;99.90;;;;;;6274751;28;20481;-65
2022/10/28 03:31:26;;;;;;;6.33;5.10;;;11.50;99.90;;;;;;6274690;28;20474;-63
2022/10/28 03:34:29;;;;;;;5.03;4.63;;;11.50;99.90;;;;;;6275114;28;20806;-67
2022/10/28 03:37:33;;;;;;;6.63;5.30;;;11.60;99.90;;;;;;6274756;28;20934;-65
2022/10/28 03:40:36;;;;;;;6.27;5.67;;;11.60;99.90;;;;;;6276082;28;20532;-65
2022/10/28 03:43:40;;;;;;;8.30;7.60;;;11.60;99.90;;;;;;6275227;28;20486;-65
2022/10/28 03:46:43;;;;;;;10.07;7.87;;;11.50;99.90;;;;;;6274536;28;20503;-65
2022/10/28 03:49:46;;;;;;;8.73;6.77;;;11.50;99.90;;;;;;6274354;28;20478;-64
2022/10/28 03:52:50;;;;;;;6.33;5.73;;;11.50;99.90;;;;;;6273987;28;20966;-65
2022/10/28 03:55:54;;;;;;;5.70;4.83;;;11.40;99.90;;;;;;6273794;28;20552;-65
2022/10/28 03:58:57;;;;;;;8.17;5.17;;;11.40;99.90;;;;;;6269650;28;20565;-65
2022/10/28 04:02:00;;;;;;;5.07;4.43;;;11.40;99.90;;;;;;6274230;28;20859;-64
2022/10/28 04:05:03;;;;;;;6.07;5.33;;;11.40;99.90;;;;;;6274361;28;20492;-62
2022/10/28 04:08:08;;;;;;;6.67;3.80;;;11.30;99.90;;;;;;6273845;28;20485;-65
2022/10/28 04:11:11;;;;;;;6.83;5.10;;;11.30;99.90;;;;;;6274391;28;20466;-65
2022/10/28 04:14:14;;;;;;;6.17;4.43;;;11.30;99.90;;;;;;6279303;28;20490;-65
2022/10/28 04:17:17;;;;;;;6.40;4.90;;;11.30;99.90;;;;;;6280302;28;20473;-65
2022/10/28 04:20:20;;;;;;;5.47;4.87;;;11.20;99.90;;;;;;6281570;28;20478;-65
2022/10/28 04:23:25;;;;;;;7.70;5.50;;;11.20;99.90;;;;;;6280075;28;20489;-66
2022/10/28 04:26:30;;;;;;;6.43;4.97;;;11.20;99.90;;;;;;6278520;28;20546;-66
2022/10/28 04:29:33;;;;;;;5.67;5.07;;;11.20;99.90;;;;;;6279257;28;20737;-67
2022/10/28 04:32:37;;;;;;;10.40;5.40;;;11.20;99.90;;;;;;6279402;28;20446;-66
2022/10/28 04:35:41;;;;;;;11.10;7.07;;;11.20;99.90;;;;;;6278670;28;20462;-67
2022/10/28 04:38:46;;;;;;;7.33;6.63;;;11.20;99.90;;;;;;6278496;28;20438;-66
2022/10/28 04:41:49;;;;;;;7.83;7.00;;;11.20;99.90;;;;;;6278505;28;20450;-64
2022/10/28 04:44:52;;;;;;;8.23;6.97;;;11.10;99.90;;;;;;6279542;28;20470;-65
2022/10/28 04:47:57;;;;;;;7.17;6.47;;;11.10;99.90;;;;;;6283218;28;20971;-65
2022/10/28 04:51:00;;;;;;;8.23;7.53;;;11.10;99.90;;;;;;6266164;28;20475;-65
2022/10/28 04:54:05;;;;;;;6.23;5.63;;;11.00;99.90;;;;;;6255126;28;20467;-67
2022/10/28 04:57:08;;;;;;;6.30;5.50;;;11.00;99.90;;;;;;6253524;28;20498;-67
2022/10/28 05:00:12;;;;;;;7.63;5.80;;;11.00;99.90;;;;;;6271963;28;20480;-67
2022/10/28 05:03:16;;;;;;;6.00;5.43;;;11.00;99.90;;;;;;6268482;28;20547;-64
2022/10/28 05:06:19;;;;;;;7.03;5.17;;;11.00;99.90;;;;;;6284514;28;20474;-65
2022/10/28 05:09:23;;;;;;;7.57;5.53;;;11.00;99.90;;;;;;6275737;28;20827;-65
2022/10/28 05:12:26;;;;;;;5.40;4.90;;;11.00;99.90;;;;;;6274557;28;20480;-65
2022/10/28 05:15:30;;;;;;;7.07;6.07;;;11.00;99.90;;;;;;6274052;28;20681;-65
2022/10/28 05:18:33;;;;;;;5.80;5.30;;;11.00;99.90;;;;;;6253135;28;20471;-65
2022/10/28 05:21:36;;;;;;;7.03;5.07;;;10.90;99.90;;;;;;6251228;28;20950;-62
2022/10/28 05:24:41;;;;;;;5.73;4.83;;;10.90;99.90;;;;;;6250896;28;20598;-64
2022/10/28 05:27:44;;;;;;;6.50;5.70;;;10.90;99.90;;;;;;6251233;28;20818;-64
2022/10/28 05:30:47;;;;;;;6.20;4.70;;;10.90;99.90;;;;;;6251365;28;20472;-65
2022/10/28 05:33:50;;;;;;;8.50;6.17;;;10.90;99.90;;;;;;6251142;28;20478;-66
2022/10/28 05:36:54;;;;;;;6.63;6.03;;;10.80;99.90;;;;;;6252541;28;20962;-65
2022/10/28 05:39:58;;;;;;;9.50;5.10;;;10.80;99.90;;;;;;6251965;28;20482;-65
2022/10/28 05:43:02;;;;;;;7.80;7.00;;;10.80;99.90;;;;;;6251731;28;20467;-65
2022/10/28 05:46:05;;;;;;;8.03;6.50;;;10.90;99.90;;;;;;6252197;28;20475;-65
2022/10/28 05:49:08;;;;;;;8.33;7.53;;;10.90;99.90;;;;;;6251493;28;20475;-66
2022/10/28 05:52:11;;;;;;;9.87;8.97;;;10.90;99.90;;;;;;6251184;28;20468;-65
2022/10/28 05:55:18;;;;;;;8.20;7.50;;;10.90;99.90;;;;;;6251945;28;20974;-65
2022/10/28 05:58:21;;;;;;;7.00;6.40;;;10.90;99.90;;;;;;6252535;28;20498;-64
2022/10/28 06:01:24;;;;;;;7.50;6.80;;;11.00;99.90;;;;;;6252202;28;20582;-65
2022/10/28 06:04:28;;;;;;;8.00;7.30;;;11.00;99.90;;;;;;6251742;28;20978;-64
2022/10/28 06:07:33;;;;;;;8.40;7.20;;;11.00;99.90;;;;;;6251967;28;20472;-64
2022/10/28 06:10:38;;;;;;;8.93;8.03;;;11.10;99.90;;;;;;6252213;28;20499;-65
2022/10/28 06:13:41;;;;;;;9.40;8.40;;;11.10;99.90;;;;;;6251243;28;20471;-64
2022/10/28 06:16:46;;;;;;;9.07;8.17;;;11.10;99.90;;;;;;6251641;28;20486;-65
2022/10/28 06:19:49;;;;;;;10.97;8.43;;;11.10;99.90;;;;;;6252170;28;20949;-65
2022/10/28 06:22:53;;;;;;;11.83;7.50;;;11.10;99.90;;;;;;6251755;28;20482;-66
2022/10/28 06:26:00;;;;;;;10.20;8.97;;;11.20;99.90;;;;;;6251490;28;20487;-65
2022/10/28 06:29:03;;;;;;;9.37;8.40;;;11.30;99.90;;;;;;6250899;28;20830;-65
2022/10/28 06:32:10;;;;;;;8.87;7.97;;;11.30;99.90;;;;;;6251248;28;20476;-65
2022/10/28 06:35:13;;;;;;;8.90;7.50;;;11.30;99.90;;;;;;6250453;28;20537;-65
2022/10/28 06:38:16;;;;;;;10.43;7.70;;;11.40;99.90;;;;;;6253251;28;20498;-65
2022/10/28 06:41:21;;;;;;;8.20;6.83;;;11.40;99.90;;;;;;6253323;28;20482;-65
2022/10/28 06:44:24;;;;;;;12.17;7.97;;;11.50;99.90;;;;;;6251357;28;21096;-65
2022/10/28 06:47:27;;;;;;;9.10;7.63;;;11.50;99.90;;;;;;6251079;28;20490;-65
2022/10/28 06:50:31;;;;;;;10.90;8.63;;;11.60;99.90;;;;;;6250513;28;20469;-65
2022/10/28 06:53:34;;;;;;;11.63;7.33;;;11.60;99.90;;;;;;6250688;28;20473;-65
2022/10/28 06:56:39;;;;;;;8.00;7.10;;;11.70;99.90;;;;;;6250587;28;20479;-65
2022/10/28 06:59:42;;;;;;;7.83;6.93;;;11.70;99.90;;;;;;6250418;28;20455;-65
2022/10/28 07:02:45;;;;;;;9.33;7.07;;;11.60;99.90;;;;;;6272299;28;20458;-65
2022/10/28 07:05:50;;;;;;;8.10;7.30;;;11.70;99.90;;;;;;6275385;28;20486;-65
2022/10/28 07:08:53;;;;;;;10.50;7.20;;;11.80;99.90;;;;;;6275607;28;20462;-65
2022/10/28 07:11:58;;;;;;;10.33;7.67;;;11.80;99.90;;;;;;6275269;28;20842;-65
2022/10/28 07:15:08;;;;;;;8.80;7.30;;;11.80;99.90;;;;;;6276056;28;20467;-65
2022/10/28 07:18:11;;;;;;;12.20;7.53;;;11.90;99.90;;;;;;6276264;28;20470;-65
2022/10/28 07:21:14;;;;;;;11.83;8.20;;;12.00;99.90;;;;;;6275314;28;20466;-64
2022/10/28 07:24:17;;;;;;;8.50;7.70;;;12.00;99.90;;;;;;6274877;28;20527;-64
2022/10/28 07:27:22;;;;;;;10.07;7.90;;;12.10;99.90;;;;;;6275183;28;20474;-64
2022/10/28 07:30:25;;;;;;;7.90;7.20;;;12.20;99.90;;;;;;6274666;28;20625;-64
2022/10/28 07:33:28;;;;;;;10.80;7.83;;;12.30;99.90;;;;;;6275064;28;20475;-64
2022/10/28 07:36:31;;;;;;;9.10;8.23;;;12.40;99.90;;;;;;6274397;28;20528;-64
2022/10/28 07:39:34;;;;;;;11.93;8.87;;;12.50;99.90;;;;;;6274685;28;20519;-64
2022/10/28 07:42:40;;;;;;;13.13;8.60;;;12.70;99.90;;;;;;6274862;28;20477;-64
2022/10/28 07:45:43;;;;;;;10.83;9.10;;;12.70;99.90;;;;;;6274127;28;20482;-64
2022/10/28 07:48:46;;;;;;;9.97;8.70;;;12.70;99.90;;;;;;6274636;28;20475;-64
2022/10/28 07:51:50;;;;;;;13.13;9.50;;;12.80;99.90;;;;;;6274965;28;20539;-64
2022/10/28 07:54:54;;;;;;;13.10;9.50;;;12.90;99.90;;;;;;6274653;28;20505;-65
2022/10/28 07:58:00;;;;;;;12.07;8.63;;;13.00;99.90;;;;;;6274400;28;20942;-65
2022/10/28 08:01:06;;;;;;;9.97;9.07;;;13.00;99.90;;;;;;6274443;28;20984;-65
2022/10/28 08:04:09;;;;;;;13.43;8.63;;;13.10;99.90;;;;;;6275070;28;20474;-65
2022/10/28 08:07:13;;;;;;;12.30;9.53;;;13.20;99.90;;;;;;6274527;28;20807;-65
2022/10/28 08:10:16;;;;;;;10.90;9.83;;;13.30;99.90;;;;;;6269469;28;20485;-64
2022/10/28 08:13:21;;;;;;;12.20;8.13;;;13.40;99.90;;;;;;6263643;28;20862;-64
2022/10/28 08:16:24;;;;;;;8.27;7.30;;;13.50;99.90;;;;;;6243535;28;20979;-64
2022/10/28 08:19:27;;;;;;;9.40;8.50;;;13.70;99.90;;;;;;6250187;28;20471;-64
2022/10/28 08:22:30;;;;;;;13.60;8.00;;;13.80;99.90;;;;;;6252672;28;20474;-64
2022/10/28 08:25:34;;;;;;;10.50;8.93;;;14.00;99.90;;;;;;6257087;28;20550;-64
2022/10/28 08:28:38;;;;;;;10.73;7.93;;;14.20;99.90;;;;;;6263289;28;20560;-64
2022/10/28 08:31:41;;;;;;;16.90;8.93;;;14.40;99.90;;;;;;6259955;28;20471;-64
2022/10/28 08:34:45;;;;;;;9.63;8.33;;;14.70;99.90;;;;;;6254233;28;20475;-64
2022/10/28 08:37:51;;;;;;;8.27;7.43;;;14.90;99.90;;;;;;6248845;28;20973;-64
2022/10/28 08:41:02;;;;;;;8.83;7.93;;;15.30;99.90;;;;;;6249383;28;20479;-64
2022/10/28 08:44:30;;;;;;;9.90;8.53;;;15.80;99.90;;;;;;6249165;28;20808;-64
2022/10/28 08:47:45;;;;;;;8.07;6.90;;;18.30;99.90;;;;;;6239983;28;20493;-64
2022/10/28 08:50:53;;;;;;;8.60;7.73;;;22.70;99.90;;;;;;6248902;28;20291;-65
2022/10/28 08:54:02;;;;;;;8.37;7.57;;;26.90;90.10;;;;;;6249222;28;20239;-65
2022/10/28 08:57:11;;;;;;;10.03;7.33;;;30.40;65.60;;;;;;6250616;28;20555;-66
2022/10/28 09:00:25;;;;;;;10.25;7.63;;;33.30;51.10;;;;;;6255316;28;20322;-66
2022/10/28 09:03:30;;;;;;;12.45;7.32;;;35.70;42.00;;;;;;6256833;28;20228;-66
2022/10/28 09:06:38;;;;;;;9.05;8.25;;;37.50;36.50;;;;;;6253557;28;20749;-67
2022/10/28 09:09:42;;;;;;;8.32;7.10;;;37.70;33.40;;;;;;6254781;28;20337;-66
2022/10/28 09:12:54;;;;;;;11.63;7.63;;;35.20;34.90;;;;;;6253042;28;20659;-65
2022/10/28 09:16:07;;;;;;;9.00;7.85;;;31.90;39.00;;;;;;6253268;28;20701;-65
2022/10/28 09:19:40;;;;;;;14.17;8.80;;;29.40;43.50;;;;;;6248971;28;20248;-66
2022/10/28 09:22:55;;;;;;;10.70;8.50;;;27.30;48.50;;;;;;6253769;28;20227;-65
2022/10/28 09:26:12;;;;;;;8.87;7.97;;;27.20;51.40;;;;;;6258532;28;20240;-66
2022/10/28 09:29:26;;;;;;;9.30;8.05;;;30.60;46.40;;;;;;6275670;28;20251;-66
2022/10/28 09:32:39;;;;;;;10.75;8.07;;;34.10;40.70;;;;;;6262234;28;20227;-68
2022/10/28 09:35:45;;;;;;;9.07;7.95;;;37.00;35.60;;;;;;6253575;28;20238;-67
2022/10/28 09:38:53;;;;;;;10.98;7.90;;;39.40;31.30;;;;;;6252435;28;20196;-67
2022/10/28 09:42:02;;;;;;;9.50;7.47;;;41.10;28.80;;;;;;6253285;28;20231;-67
2022/10/28 09:45:12;;;;;;;8.75;7.85;;;42.90;26.60;;;;;;6252441;28;20275;-67
2022/10/28 09:48:23;;;;;;;9.65;7.75;;;44.20;25.10;;;;;;6252852;28;20238;-65
2022/10/28 09:51:33;;;;;;;9.15;7.53;;;45.20;23.80;;;;;;6252551;28;20239;-65
2022/10/28 09:54:38;;;;;;;10.57;7.45;;;45.80;23.00;;;;;;6252263;28;20251;-65
2022/10/28 09:57:42;;;;;;;8.32;7.20;;;46.70;22.10;;;;;;6262737;28;20226;-66
2022/10/28 10:00:46;;;;;;;7.88;7.05;;;47.40;21.40;;;;;;6254667;28;20242;-65
2022/10/28 10:03:52;;;;;;;7.47;6.68;;;47.60;20.60;;;;;;6252539;28;20227;-65
2022/10/28 10:06:59;;;;;;;9.20;6.45;;;47.10;20.70;;;;;;6252649;28;20238;-65
2022/10/28 10:10:10;;;;;;;8.20;6.60;;;47.60;20.30;;;;;;6252486;28;20234;-65
2022/10/28 10:13:15;;;;;;;8.63;7.72;;;48.40;19.90;;;;;;6253799;28;20231;-65
2022/10/28 10:16:23;;;;;;;6.97;6.20;;;47.40;20.20;;;;;;6258803;28;20640;-65
2022/10/28 10:19:28;;;;;;;7.22;6.53;;;47.70;20.10;;;;;;6259991;28;20331;-66
2022/10/28 10:22:33;;;;;;;7.20;6.60;;;48.40;19.60;;;;;;6251337;28;20584;-65
2022/10/28 10:25:37;;;;;;;7.03;6.30;;;49.10;19.10;;;;;;6251808;28;20290;-65
2022/10/28 10:28:45;;;;;;;7.78;6.80;;;49.60;18.50;;;;;;6255780;28;20309;-65
2022/10/28 10:31:48;;;;;;;9.60;6.90;;;49.80;18.30;;;;;;6257130;28;20227;-66
2022/10/28 10:35:00;;;;;;;7.63;6.35;;;50.50;18.10;;;;;;6258540;28;20587;-65
2022/10/28 10:38:05;;;;;;;8.52;6.47;;;50.90;17.60;;;;;;6270352;28;20226;-66
2022/10/28 10:41:09;;;;;;;8.68;6.45;;;51.20;17.40;;;;;;6276181;28;20241;-66
2022/10/28 10:44:30;;;;;;;6.38;5.88;;;51.10;17.50;;;;;;6275922;28;20715;-66
2022/10/28 10:47:33;;;;;;;6.65;6.03;;;51.20;17.20;;;;;;6275606;28;20631;-64
2022/10/28 10:50:38;;;;;;;9.82;6.65;;;51.50;17.00;;;;;;6268363;28;20200;-65
2022/10/28 10:53:41;;;;;;;9.27;6.75;;;51.90;16.60;;;;;;6262044;28;20210;-65
2022/10/28 10:56:44;;;;;;;6.68;5.18;;;52.30;16.50;;;;;;6274967;28;20239;-65
2022/10/28 10:59:50;;;;;;;6.20;5.15;;;52.60;16.20;;;;;;6274635;28;20242;-66
2022/10/28 11:02:54;;;;;;;7.38;5.75;;;53.30;15.80;;;;;;6275471;28;20233;-65
2022/10/28 11:06:00;;;;;;;5.75;4.88;;;53.50;15.30;;;;;;6268793;28;20241;-65
2022/10/28 11:09:33;;;;;;;6.72;5.30;;;52.70;15.80;;;;;;6250346;28;20310;-65
2022/10/28 11:12:37;;;;;;;6.70;5.50;;;52.00;15.50;;;;;;6250143;28;20689;-65
2022/10/28 11:15:40;;;;;;;7.00;6.18;;;51.90;15.60;;;;;;6250398;28;20566;-65
2022/10/28 11:18:45;;;;;;;6.82;5.40;;;51.90;15.80;;;;;;6250379;28;20231;-64
2022/10/28 11:22:04;;;;;;;6.78;4.95;;;52.30;15.90;;;;;;6249683;28;20246;-65
2022/10/28 11:25:21;;;;;;;6.63;5.97;;;52.30;15.80;;;;;;6252616;28;20243;-65
2022/10/28 11:28:55;;;;;;;5.55;5.00;;;52.40;15.60;;;;;;6242192;28;20231;-65
2022/10/28 11:32:18;;;;;;;8.48;5.03;;;52.50;15.60;;;;;;6242516;28;20235;-66
2022/10/28 11:35:43;;;;;;;5.60;5.10;;;52.30;15.80;;;;;;6250262;28;20238;-65
2022/10/28 11:39:11;;;;;;;6.05;5.45;;;52.50;15.70;;;;;;6250239;28;20208;-65
2022/10/28 11:42:28;;;;;;;7.43;5.35;;;51.80;15.70;;;;;;6250238;28;20227;-65
2022/10/28 11:45:39;;;;;;;6.20;5.70;;;51.10;16.40;;;;;;6252821;28;20362;-65
2022/10/28 11:48:58;;;;;;;6.03;4.88;;;51.10;16.70;;;;;;6259447;28;20288;-65
2022/10/28 11:52:14;;;;;;;5.53;4.93;;;50.50;16.90;;;;;;6274906;28;20250;-65
2022/10/28 11:55:30;;;;;;;5.47;4.95;;;50.60;16.70;;;;;;6274410;28;20243;-66
2022/10/28 11:58:41;;;;;;;5.60;5.13;;;49.30;17.50;;;;;;6274355;28;20243;-66
2022/10/28 12:01:54;;;;;;;5.35;4.85;;;49.90;17.50;;;;;;6275089;28;20236;-66
2022/10/28 12:05:04;;;;;;;5.30;4.80;;;49.90;17.30;;;;;;6274534;28;20231;-65
2022/10/28 12:08:25;;;;;;;5.38;4.90;;;48.90;17.90;;;;;;6274653;28;20686;-66
2022/10/28 12:11:47;;;;;;;6.78;4.88;;;49.10;18.00;;;;;;6260354;28;20670;-66
2022/10/28 12:15:00;;;;;;;6.97;5.10;;;49.00;17.90;;;;;;6249504;28;20208;-66
2022/10/28 12:18:11;;;;;;;5.20;4.80;;;48.20;18.10;;;;;;6249359;28;20564;-66
2022/10/28 12:21:19;;;;;;;5.78;5.05;;;47.60;18.80;;;;;;6249530;28;20228;-65
2022/10/28 12:24:24;;;;;;;5.82;4.60;;;47.20;18.70;;;;;;6249688;28;20231;-66
2022/10/28 12:27:32;;;;;;;7.70;5.30;;;48.20;18.60;;;;;;6249194;28;20238;-66
2022/10/28 12:30:40;;;;;;;5.82;4.75;;;49.00;18.50;;;;;;6244840;28;20233;-66
2022/10/28 12:48:19;;;;;;;6.35;4.70;;;48.40;17.50;;;;;;6246159;28;20575;-63
2022/10/28 12:51:29;;;;;;;5.00;4.50;;;45.50;19.60;;;;;;6246707;28;20752;-61
2022/10/28 12:54:41;;;;;;;4.85;4.35;;;46.10;19.40;;;;;;6246520;28;20242;-62
2022/10/28 12:57:49;;;;;;;4.28;3.92;;;47.30;18.90;;;;;;6245504;28;20235;-62
2022/10/28 13:00:55;;;;;;;5.78;4.18;;;48.20;18.80;;;;;;6245627;28;20239;-62
2022/10/28 13:04:01;;;;;;;4.68;3.78;;;48.50;18.00;;;;;;6245588;28;20307;-62
2022/10/28 13:07:25;;;;;;;7.18;3.97;;;48.60;17.60;;;;;;6231773;28;20258;-62
2022/10/28 13:10:34;;;;;;;4.53;4.10;;;47.50;18.10;;;;;;6244824;28;20246;-59
2022/10/28 13:13:49;;;;;;;6.35;4.28;;;47.40;18.10;;;;;;6248387;28;20234;-61
2022/10/28 13:17:18;;;;;;;4.53;4.13;;;47.30;18.00;;;;;;6245565;28;20715;-61
2022/10/28 13:20:38;;;;;;;7.78;4.07;;;46.50;19.20;;;;;;6245571;28;20577;-61
2022/10/28 13:23:46;;;;;;;6.38;4.10;;;46.40;19.30;;;;;;6245828;28;20242;-58
2022/10/28 13:26:49;;;;;;;6.35;4.13;;;45.80;19.30;;;;;;6245724;28;20245;-61
2022/10/28 13:29:55;;;;;;;4.82;3.70;;;45.40;19.60;;;;;;6245568;28;20255;-60
2022/10/28 13:33:05;;;;;;;6.20;4.10;;;45.40;19.80;;;;;;6245205;28;20248;-59
2022/10/28 13:36:17;;;;;;;8.80;4.30;;;44.80;19.80;;;;;;6244500;28;20249;-58
2022/10/28 13:39:38;;;;;;;10.15;3.50;;;43.10;21.00;;;;;;6245102;28;20242;-59
2022/10/28 13:42:50;;;;;;;5.20;4.63;;;41.30;22.80;;;;;;6244909;28;20301;-61
2022/10/28 13:45:55;;;;;;;5.47;3.45;;;39.10;24.40;;;;;;6255155;28;20307;-60
2022/10/28 13:49:22;;;;;;;3.72;3.42;;;37.40;25.80;;;;;;6252789;28;20681;-59
2022/10/28 13:52:26;;;;;;;5.30;3.85;;;35.70;27.80;;;;;;6253321;28;20232;-61
2022/10/28 13:55:43;;;;;;;4.40;4.00;;;34.20;29.10;;;;;;6253473;28;20236;-60
2022/10/28 13:58:52;;;;;;;5.35;3.63;;;32.60;31.40;;;;;;6241093;28;20228;-60
2022/10/28 14:02:02;;;;;;;7.65;4.60;;;31.00;34.00;;;;;;6227775;28;20944;-60
2022/10/28 14:05:47;;;;;;;5.38;3.70;;;30.00;35.60;;;;;;6227850;28;20314;-64
2022/10/28 14:08:52;;;;;;;5.97;4.27;;;29.10;37.20;;;;;;6228486;28;20243;-59
2022/10/28 14:12:13;;;;;;;4.33;3.60;;;28.00;39.30;;;;;;6228262;28;20240;-60
2022/10/28 14:15:23;;;;;;;4.43;3.90;;;27.30;41.10;;;;;;6228279;28;20232;-62
2022/10/28 14:18:27;;;;;;;4.20;3.80;;;26.70;42.30;;;;;;6227933;28;20620;-62
2022/10/28 14:21:51;;;;;;;5.40;3.90;;;26.30;43.40;;;;;;6227611;28;20674;-60
2022/10/28 14:25:03;;;;;;;4.40;4.00;;;26.00;44.30;;;;;;6227267;28;20239;-59
2022/10/28 14:28:53;;;;;;;7.73;4.30;;;25.70;45.00;;;;;;6227758;28;20240;-61
2022/10/28 14:31:56;;;;;;;5.93;3.50;;;25.40;45.90;;;;;;6227582;28;20223;-59
2022/10/28 14:35:03;;;;;;;5.83;4.10;;;25.10;46.40;;;;;;6227766;28;20319;-60
2022/10/28 14:38:44;;;;;;;6.60;4.00;;;24.90;47.30;;;;;;6227464;28;20232;-60
2022/10/28 14:42:02;;;;;;;5.77;3.90;;;24.70;47.90;;;;;;6227166;28;20243;-61
2022/10/28 14:45:18;;;;;;;7.30;3.90;;;24.40;48.50;;;;;;6231747;28;20228;-62
2022/10/28 14:48:52;;;;;;;7.20;4.37;;;24.20;49.50;;;;;;6227118;28;20245;-62
2022/10/28 14:51:56;;;;;;;5.93;3.50;;;24.00;50.10;;;;;;6222909;28;20251;-61
2022/10/28 14:55:02;;;;;;;4.23;3.83;;;23.80;50.40;;;;;;6226932;28;20233;-62
2022/10/28 14:58:22;;;;;;;7.27;3.80;;;23.60;51.20;;;;;;6225841;28;20244;-61
2022/10/28 15:01:27;;;;;;;5.87;4.17;;;23.50;52.30;;;;;;6226597;28;20233;-62
2022/10/28 15:04:31;;;;;;;7.20;4.27;;;23.40;53.20;;;;;;6227008;28;20294;-62
2022/10/28 15:07:35;;;;;;;7.00;3.60;;;23.00;54.70;;;;;;6226163;28;20233;-61
2022/10/28 15:10:45;;;;;;;6.57;4.00;;;22.50;56.20;;;;;;6226507;28;20630;-62
2022/10/28 15:13:52;;;;;;;7.27;4.70;;;22.50;57.10;;;;;;6226498;28;20655;-62
2022/10/28 15:16:56;;;;;;;4.37;3.73;;;22.30;58.00;;;;;;6226065;28;20233;-61
2022/10/28 15:20:00;;;;;;;6.27;4.00;;;22.10;59.10;;;;;;6214994;28;20212;-62
2022/10/28 15:23:16;;;;;;;5.30;3.50;;;22.00;60.20;;;;;;6212190;28;20527;-61
2022/10/28 15:26:19;;;;;;;4.27;3.70;;;21.90;61.70;;;;;;6212859;28;20229;-61
2022/10/28 15:29:25;;;;;;;6.67;4.40;;;21.80;62.50;;;;;;6211306;28;20228;-62
2022/10/28 15:32:33;;;;;;;6.50;4.60;;;21.70;64.20;;;;;;6213771;28;20570;-62
2022/10/28 15:35:39;;;;;;;6.87;4.77;;;21.60;65.10;;;;;;6214672;28;20228;-62
2022/10/28 15:38:44;;;;;;;8.13;5.00;;;21.60;66.40;;;;;;6209810;28;20713;-62
2022/10/28 15:41:51;;;;;;;9.07;5.00;;;21.50;67.30;;;;;;6214843;28;20314;-62
2022/10/28 15:44:57;;;;;;;14.90;6.87;;;21.40;68.60;;;;;;6217648;28;20216;-62
2022/10/28 15:48:02;;;;;;;13.20;6.80;;;21.40;69.90;;;;;;6212426;28;20228;-61
2022/10/28 15:51:13;;;;;;;15.57;7.10;;;21.30;71.40;;;;;;6213367;28;20232;-61
2022/10/28 15:54:19;;;;;;;18.30;7.20;;;21.20;73.10;;;;;;6210884;28;20221;-61
2022/10/28 15:57:24;;;;;;;7.50;6.43;;;21.10;74.60;;;;;;6212078;28;20574;-61
2022/10/28 16:00:31;;;;;;;10.87;6.00;;;21.00;76.10;;;;;;6208775;28;20323;-61
2022/10/28 16:03:42;;;;;;;12.00;6.07;;;20.90;77.70;;;;;;6224484;28;20228;-62
2022/10/28 16:06:46;;;;;;;15.60;6.37;;;20.90;79.50;;;;;;6221412;28;20240;-62
2022/10/28 16:09:50;;;;;;;8.17;6.50;;;20.80;80.70;;;;;;6224183;28;20620;-62
2022/10/28 16:12:54;;;;;;;16.63;8.00;;;20.70;82.30;;;;;;6220645;28;20233;-62
2022/10/28 16:16:05;;;;;;;14.70;9.40;;;20.60;83.60;;;;;;6210890;28;20244;-60
2022/10/28 16:19:16;;;;;;;9.33;6.13;;;20.50;85.00;;;;;;6210078;28;20228;-62
2022/10/28 16:22:19;;;;;;;8.67;5.40;;;20.40;86.50;;;;;;6209695;28;20229;-62
2022/10/28 16:25:23;;;;;;;9.33;5.67;;;20.30;88.30;;;;;;6210038;28;20222;-62
2022/10/28 16:28:27;;;;;;;7.77;5.83;;;20.20;89.40;;;;;;6207736;28;20233;-62
2022/10/28 16:31:32;;;;;;;8.67;5.97;;;20.10;90.50;;;;;;6208885;28;20241;-61